createdAt,value
2017-12-17T00:00:48.758Z,0.5
2017-12-17T00:01:52.056Z,0.5
2017-12-17T00:02:59.904Z,0.5
2017-12-17T00:04:04.197Z,0.5
2017-12-17T00:05:08.176Z,0.4
2017-12-17T00:06:12.715Z,0.5
2017-12-17T00:07:16.251Z,0.4
2017-12-17T00:08:19.649Z,0.5
2017-12-17T00:09:23.058Z,0.5
2017-12-17T00:10:26.515Z,0.5
2017-12-17T00:11:29.847Z,0.5
2017-12-17T00:12:34.049Z,0.5
2017-12-17T00:13:41.958Z,0.5
2017-12-17T00:14:45.782Z,0.5
2017-12-17T00:15:49.044Z,0.6
2017-12-17T00:16:53.172Z,0.5
2017-12-17T00:17:56.654Z,0.5
2017-12-17T00:19:00.157Z,0.5
2017-12-17T00:20:04.493Z,0.5
2017-12-17T00:21:07.674Z,0.5
2017-12-17T00:22:10.980Z,0.5
2017-12-17T00:23:14.414Z,0.5
2017-12-17T00:24:20.388Z,0.5
2017-12-17T00:25:24.779Z,0.5
2017-12-17T00:26:28.894Z,0.6
2017-12-17T00:27:32.967Z,0.6
2017-12-17T00:28:36.885Z,0.6
2017-12-17T00:29:40.962Z,0.5
2017-12-17T00:30:44.337Z,0.5
2017-12-17T00:31:47.609Z,0.5
2017-12-17T00:32:51.723Z,0.6
2017-12-17T00:33:55.066Z,0.6
2017-12-17T00:35:03.057Z,0.6
2017-12-17T00:36:07.151Z,0.6
2017-12-17T00:37:10.599Z,0.5
2017-12-17T00:38:13.919Z,0.5
2017-12-17T00:39:17.677Z,0.5
2017-12-17T00:40:21.062Z,0.5
2017-12-17T00:41:24.586Z,0.5
2017-12-17T00:42:28.087Z,0.6
2017-12-17T00:43:31.412Z,0.5
2017-12-17T00:44:35.129Z,0.5
2017-12-17T00:45:42.560Z,0.5
2017-12-17T00:46:45.956Z,0.4
2017-12-17T00:47:49.333Z,0.5
2017-12-17T00:48:52.720Z,0.5
2017-12-17T00:49:56.329Z,0.5
2017-12-17T00:50:59.769Z,0.5
2017-12-17T00:52:03.311Z,0.5
2017-12-17T00:53:07.256Z,0.6
2017-12-17T00:54:10.665Z,0.6
2017-12-17T00:55:14.276Z,0.5
2017-12-17T00:56:21.263Z,0.5
2017-12-17T00:57:26.766Z,0.5
2017-12-17T00:58:30.281Z,0.5
2017-12-17T00:59:33.823Z,0.6
2017-12-17T01:00:37.315Z,0.6
2017-12-17T01:01:40.822Z,0.5
2017-12-17T01:02:44.088Z,0.5
2017-12-17T01:03:47.574Z,0.6
2017-12-17T01:04:51.888Z,0.6
2017-12-17T01:05:55.519Z,0.6
2017-12-17T01:07:02.418Z,0.5
2017-12-17T01:08:05.806Z,0.5
2017-12-17T01:09:09.220Z,0.5
2017-12-17T01:10:12.663Z,0.5
2017-12-17T01:11:16.153Z,0.5
2017-12-17T01:12:19.516Z,0.5
2017-12-17T01:13:23.884Z,0.5
2017-12-17T01:14:27.295Z,0.6
2017-12-17T01:15:30.749Z,0.5
2017-12-17T01:16:34.357Z,0.5
2017-12-17T01:17:41.312Z,0.5
2017-12-17T01:18:44.788Z,0.5
2017-12-17T01:19:48.270Z,0.5
2017-12-17T01:20:51.753Z,0.6
2017-12-17T01:21:55.380Z,0.6
2017-12-17T01:22:58.902Z,0.6
2017-12-17T01:24:02.362Z,0.6
2017-12-17T01:25:06.273Z,0.6
2017-12-17T01:26:09.691Z,0.6
2017-12-17T01:27:13.091Z,0.6
2017-12-17T01:28:23.230Z,0.6
2017-12-17T01:29:26.705Z,0.6
2017-12-17T01:30:31.074Z,0.6
2017-12-17T01:31:34.463Z,0.6
2017-12-17T01:32:37.910Z,0.6
2017-12-17T01:33:41.274Z,0.6
2017-12-17T01:34:44.639Z,0.6
2017-12-17T01:35:47.947Z,0.6
2017-12-17T01:36:51.433Z,0.6
2017-12-17T01:37:55.862Z,0.6
2017-12-17T01:39:03.682Z,0.6
2017-12-17T01:40:07.028Z,0.6
2017-12-17T01:41:11.434Z,0.6
2017-12-17T01:42:14.843Z,0.5
2017-12-17T01:43:18.258Z,0.6
2017-12-17T01:44:21.645Z,0.6
2017-12-17T01:45:28.719Z,0.6
2017-12-17T01:46:32.258Z,0.6
2017-12-17T01:47:35.571Z,0.6
2017-12-17T01:48:39.965Z,0.6
2017-12-17T01:49:47.610Z,0.7
2017-12-17T01:50:51.564Z,0.6
2017-12-17T01:51:54.956Z,0.6
2017-12-17T01:52:58.421Z,0.6
2017-12-17T01:54:02.056Z,0.6
2017-12-17T01:55:05.416Z,0.6
2017-12-17T01:56:08.884Z,0.6
2017-12-17T01:57:12.229Z,0.6
2017-12-17T01:58:18.654Z,0.6
2017-12-17T01:59:22.141Z,0.5
2017-12-17T02:00:29.173Z,0.5
2017-12-17T02:01:32.346Z,0.6
2017-12-17T02:02:36.504Z,0.6
2017-12-17T02:03:39.951Z,0.6
2017-12-17T02:04:43.395Z,0.6
2017-12-17T02:05:47.603Z,0.6
2017-12-17T02:06:51.131Z,0.7
2017-12-17T02:07:54.516Z,0.7
2017-12-17T02:08:58.579Z,0.7
2017-12-17T02:10:01.963Z,0.6
2017-12-17T02:11:09.069Z,0.7
2017-12-17T02:12:12.487Z,0.6
2017-12-17T02:13:15.871Z,0.6
2017-12-17T02:14:19.328Z,0.6
2017-12-17T02:15:23.545Z,0.6
2017-12-17T02:16:26.994Z,0.6
2017-12-17T02:17:31.772Z,0.6
2017-12-17T02:18:35.182Z,0.6
2017-12-17T02:19:38.728Z,0.6
2017-12-17T02:20:42.367Z,0.6
2017-12-17T02:21:49.355Z,0.6
2017-12-17T02:22:53.282Z,0.6
2017-12-17T02:23:57.005Z,0.6
2017-12-17T02:25:00.381Z,0.5
2017-12-17T02:26:03.907Z,0.5
2017-12-17T02:27:07.413Z,0.6
2017-12-17T02:28:10.695Z,0.5
2017-12-17T02:29:14.213Z,0.6
2017-12-17T02:30:17.561Z,0.5
2017-12-17T02:31:21.005Z,0.5
2017-12-17T02:32:28.039Z,0.5
2017-12-17T02:33:31.416Z,0.5
2017-12-17T02:34:35.618Z,0.4
2017-12-17T02:35:39.744Z,0.5
2017-12-17T02:36:43.121Z,0.5
2017-12-17T02:37:46.552Z,0.5
2017-12-17T02:38:49.916Z,0.6
2017-12-17T02:39:53.384Z,0.5
2017-12-17T02:40:56.727Z,0.5
2017-12-17T02:42:00.250Z,0.5
2017-12-17T02:43:08.198Z,0.5
2017-12-17T02:44:12.216Z,0.4
2017-12-17T02:45:15.731Z,0.5
2017-12-17T02:46:19.073Z,0.4
2017-12-17T02:47:22.856Z,0.4
2017-12-17T02:48:26.254Z,0.4
2017-12-17T02:49:29.784Z,0.4
2017-12-17T02:50:33.448Z,0.4
2017-12-17T02:51:37.908Z,0.4
2017-12-17T02:52:41.539Z,0.4
2017-12-17T02:53:48.512Z,0.4
2017-12-17T02:54:53.031Z,0.4
2017-12-17T02:55:56.481Z,0.3
2017-12-17T02:57:00.006Z,0.4
2017-12-17T02:58:03.187Z,0.4
2017-12-17T02:59:06.676Z,0.4
2017-12-17T03:00:09.930Z,0.4
2017-12-17T03:01:13.843Z,0.4
2017-12-17T03:02:17.177Z,0.4
2017-12-17T03:03:21.402Z,0.4
2017-12-17T03:04:27.738Z,0.4
2017-12-17T03:05:30.860Z,0.4
2017-12-17T03:06:35.011Z,0.4
2017-12-17T03:07:39.251Z,0.5
2017-12-17T03:08:43.297Z,0.4
2017-12-17T03:09:46.696Z,0.4
2017-12-17T03:10:50.105Z,0.4
2017-12-17T03:11:53.589Z,0.4
2017-12-17T03:12:57.309Z,0.4
2017-12-17T03:14:01.453Z,0.4
2017-12-17T03:15:09.365Z,0.4
2017-12-17T03:16:12.636Z,0.4
2017-12-17T03:17:16.011Z,0.4
2017-12-17T03:18:19.428Z,0.4
2017-12-17T03:19:23.031Z,0.5
2017-12-17T03:20:26.455Z,0.5
2017-12-17T03:21:29.993Z,0.5
2017-12-17T03:22:33.375Z,0.5
2017-12-17T03:23:36.901Z,0.5
2017-12-17T03:24:40.335Z,0.5
2017-12-17T03:25:47.402Z,0.5
2017-12-17T03:26:51.036Z,0.5
2017-12-17T03:27:54.407Z,0.4
2017-12-17T03:28:57.719Z,0.4
2017-12-17T03:30:01.242Z,0.4
2017-12-17T03:31:04.407Z,0.4
2017-12-17T03:32:07.776Z,0.4
2017-12-17T03:33:11.201Z,0.4
2017-12-17T03:34:14.548Z,0.4
2017-12-17T03:35:18.405Z,0.4
2017-12-17T03:36:25.115Z,0.4
2017-12-17T03:37:28.667Z,0.4
2017-12-17T03:38:32.063Z,0.5
2017-12-17T03:39:35.580Z,0.5
2017-12-17T03:40:39.088Z,0.5
2017-12-17T03:41:42.420Z,0.5
2017-12-17T03:42:45.777Z,0.5
2017-12-17T03:43:49.310Z,0.5
2017-12-17T03:44:52.662Z,0.5
2017-12-17T03:45:56.300Z,0.5
2017-12-17T03:47:03.149Z,0.5
2017-12-17T03:48:06.474Z,0.5
2017-12-17T03:49:10.450Z,0.5
2017-12-17T03:50:13.884Z,0.5
2017-12-17T03:51:17.602Z,0.4
2017-12-17T03:52:20.980Z,0.5
2017-12-17T03:53:27.590Z,0.5
2017-12-17T03:54:30.933Z,0.5
2017-12-17T03:55:35.167Z,0.4
2017-12-17T03:56:38.610Z,0.4
2017-12-17T03:57:45.747Z,0.4
2017-12-17T03:58:49.078Z,0.4
2017-12-17T03:59:52.562Z,0.4
2017-12-17T04:00:55.679Z,0.4
2017-12-17T04:01:59.097Z,0.4
2017-12-17T04:03:02.565Z,0.4
2017-12-17T04:04:05.932Z,0.4
2017-12-17T04:05:09.498Z,0.4
2017-12-17T04:06:12.893Z,0.4
2017-12-17T04:07:16.747Z,0.4
2017-12-17T04:08:23.267Z,0.4
2017-12-17T04:09:26.737Z,0.4
2017-12-17T04:10:30.949Z,0.5
2017-12-17T04:11:34.373Z,0.5
2017-12-17T04:12:37.861Z,0.5
2017-12-17T04:13:41.184Z,0.5
2017-12-17T04:14:44.681Z,0.5
2017-12-17T04:15:48.247Z,0.5
2017-12-17T04:16:51.754Z,0.4
2017-12-17T04:17:55.371Z,0.4
2017-12-17T04:19:02.414Z,0.4
2017-12-17T04:20:05.824Z,0.4
2017-12-17T04:21:08.867Z,0.3
2017-12-17T04:22:12.742Z,0.3
2017-12-17T04:23:16.762Z,0.3
2017-12-17T04:24:20.171Z,0.3
2017-12-17T04:25:23.594Z,0.3
2017-12-17T04:26:27.765Z,0.2
2017-12-17T04:27:31.126Z,0.2
2017-12-17T04:28:34.920Z,0.2
2017-12-17T04:29:42.524Z,0.2
2017-12-17T04:30:46.575Z,0.2
2017-12-17T04:31:49.827Z,0.3
2017-12-17T04:32:53.201Z,0.3
2017-12-17T04:33:57.015Z,0.3
2017-12-17T04:35:01.296Z,0.3
2017-12-17T04:36:04.595Z,0.3
2017-12-17T04:37:08.080Z,0.3
2017-12-17T04:38:11.570Z,0.3
2017-12-17T04:39:15.047Z,0.3
2017-12-17T04:40:23.472Z,0.3
2017-12-17T04:41:26.847Z,0.3
2017-12-17T04:42:30.225Z,0.3
2017-12-17T04:43:33.738Z,0.3
2017-12-17T04:44:37.367Z,0.3
2017-12-17T04:45:40.852Z,0.3
2017-12-17T04:46:44.006Z,0.3
2017-12-17T04:47:47.231Z,0.3
2017-12-17T04:48:51.025Z,0.3
2017-12-17T04:49:54.590Z,0.3
2017-12-17T04:51:02.125Z,0.3
2017-12-17T04:52:05.479Z,0.2
2017-12-17T04:53:08.936Z,0.2
2017-12-17T04:54:12.079Z,0.2
2017-12-17T04:55:15.378Z,0.3
2017-12-17T04:56:18.670Z,0.2
2017-12-17T04:57:22.711Z,0.3
2017-12-17T04:58:26.883Z,0.2
2017-12-17T04:59:30.143Z,0.3
2017-12-17T05:00:34.427Z,0.3
2017-12-17T05:01:42.220Z,0.3
2017-12-17T05:02:45.671Z,0.3
2017-12-17T05:03:48.908Z,0.3
2017-12-17T05:04:54.106Z,0.3
2017-12-17T05:05:57.858Z,0.3
2017-12-17T05:07:01.423Z,0.3
2017-12-17T05:08:04.816Z,0.4
2017-12-17T05:09:08.670Z,0.4
2017-12-17T05:10:12.183Z,0.4
2017-12-17T05:11:15.930Z,0.3
2017-12-17T05:12:22.718Z,0.4
2017-12-17T05:13:26.028Z,0.4
2017-12-17T05:14:32.378Z,0.4
2017-12-17T05:15:35.422Z,0.4
2017-12-17T05:16:39.519Z,0.4
2017-12-17T05:17:42.778Z,0.4
2017-12-17T05:18:46.109Z,0.4
2017-12-17T05:19:49.618Z,0.4
2017-12-17T05:20:55.050Z,0.5
2017-12-17T05:21:58.587Z,0.4
2017-12-17T05:23:05.521Z,0.4
2017-12-17T05:24:08.566Z,0.4
2017-12-17T05:25:12.841Z,0.4
2017-12-17T05:26:16.954Z,0.4
2017-12-17T05:27:21.452Z,0.4
2017-12-17T05:28:24.781Z,0.4
2017-12-17T05:29:28.019Z,0.5
2017-12-17T05:30:31.388Z,0.4
2017-12-17T05:31:35.375Z,0.4
2017-12-17T05:32:40.526Z,0.4
2017-12-17T05:33:47.936Z,0.4
2017-12-17T05:34:51.456Z,0.4
2017-12-17T05:35:54.843Z,0.5
2017-12-17T05:36:58.741Z,0.3
2017-12-17T05:38:02.403Z,0.4
2017-12-17T05:39:05.984Z,0.4
2017-12-17T05:40:11.084Z,0.4
2017-12-17T05:41:15.887Z,0.4
2017-12-17T05:42:19.954Z,0.4
2017-12-17T05:43:24.541Z,0.4
2017-12-17T05:44:32.106Z,0.4
2017-12-17T05:45:36.212Z,0.4
2017-12-17T05:46:40.356Z,0.5
2017-12-17T05:47:44.668Z,0.5
2017-12-17T05:48:48.533Z,0.5
2017-12-17T05:49:52.439Z,0.4
2017-12-17T05:50:56.587Z,0.5
2017-12-17T05:52:00.686Z,0.5
2017-12-17T05:53:04.998Z,0.5
2017-12-17T05:54:08.457Z,0.5
2017-12-17T05:55:15.297Z,0.6
2017-12-17T05:56:18.766Z,0.5
2017-12-17T05:57:22.010Z,0.5
2017-12-17T05:58:25.288Z,0.5
2017-12-17T05:59:30.317Z,0.5
2017-12-17T06:00:34.693Z,0.6
2017-12-17T06:01:38.197Z,0.6
2017-12-17T06:02:41.667Z,0.6
2017-12-17T06:03:45.903Z,0.6
2017-12-17T06:04:49.459Z,0.5
2017-12-17T06:05:56.227Z,0.5
2017-12-17T06:06:59.484Z,0.6
2017-12-17T06:08:02.980Z,0.5
2017-12-17T06:09:06.411Z,0.5
2017-12-17T06:10:10.019Z,0.6
2017-12-17T06:11:14.290Z,0.6
2017-12-17T06:12:18.950Z,0.6
2017-12-17T06:13:23.858Z,0.5
2017-12-17T06:14:27.272Z,0.6
2017-12-17T06:15:30.939Z,0.5
2017-12-17T06:16:39.893Z,0.6
2017-12-17T06:17:44.764Z,0.5
2017-12-17T06:18:50.003Z,0.5
2017-12-17T06:19:53.372Z,0.5
2017-12-17T06:20:57.524Z,0.5
2017-12-17T06:22:01.373Z,0.5
2017-12-17T06:23:05.883Z,0.6
2017-12-17T06:24:09.305Z,0.5
2017-12-17T06:25:14.432Z,0.6
2017-12-17T06:26:17.876Z,0.6
2017-12-17T06:27:23.925Z,0.5
2017-12-17T06:28:27.331Z,0.5
2017-12-17T06:29:30.678Z,0.5
2017-12-17T06:30:34.583Z,0.5
2017-12-17T06:31:40.041Z,0.5
2017-12-17T06:32:45.456Z,0.5
2017-12-17T06:33:48.832Z,0.6
2017-12-17T06:34:51.812Z,0.6
2017-12-17T06:35:56.085Z,0.6
2017-12-17T06:36:59.633Z,0.6
2017-12-17T06:38:07.358Z,0.6
2017-12-17T06:39:13.014Z,0.6
2017-12-17T06:40:16.345Z,0.6
2017-12-17T06:41:19.574Z,0.6
2017-12-17T06:42:22.664Z,0.6
2017-12-17T06:43:26.130Z,0.6
2017-12-17T06:44:29.683Z,0.6
2017-12-17T06:45:33.376Z,0.6
2017-12-17T06:46:36.723Z,0.6
2017-12-17T06:47:40.557Z,0.5
2017-12-17T06:48:51.291Z,0.6
2017-12-17T06:49:55.251Z,0.6
2017-12-17T06:50:59.338Z,0.6
2017-12-17T06:52:02.751Z,0.6
2017-12-17T06:53:05.980Z,0.6
2017-12-17T06:54:09.294Z,0.6
2017-12-17T06:55:13.809Z,0.6
2017-12-17T06:56:17.137Z,0.6
2017-12-17T06:57:21.381Z,0.6
2017-12-17T06:58:24.971Z,0.6
2017-12-17T06:59:31.797Z,0.6
2017-12-17T07:00:35.853Z,0.6
2017-12-17T07:01:39.719Z,0.6
2017-12-17T07:02:43.050Z,0.6
2017-12-17T07:03:46.500Z,0.6
2017-12-17T07:04:50.625Z,0.6
2017-12-17T07:05:54.010Z,0.6
2017-12-17T07:06:59.856Z,0.6
2017-12-17T07:08:03.600Z,0.6
2017-12-17T07:09:07.796Z,0.6
2017-12-17T07:10:15.876Z,0.6
2017-12-17T07:11:19.675Z,0.6
2017-12-17T07:12:24.420Z,0.6
2017-12-17T07:13:27.623Z,0.6
2017-12-17T07:14:31.057Z,0.6
2017-12-17T07:15:34.185Z,0.6
2017-12-17T07:16:37.632Z,0.6
2017-12-17T07:17:41.216Z,0.7
2017-12-17T07:18:44.687Z,0.6
2017-12-17T07:19:49.994Z,0.6
2017-12-17T07:20:59.235Z,0.7
2017-12-17T07:22:02.521Z,0.7
2017-12-17T07:23:05.618Z,0.7
2017-12-17T07:24:08.797Z,0.7
2017-12-17T07:25:13.844Z,0.7
2017-12-17T07:26:17.707Z,0.7
2017-12-17T07:27:21.369Z,0.7
2017-12-17T07:28:24.733Z,0.7
2017-12-17T07:29:28.020Z,0.7
2017-12-17T07:30:32.074Z,0.7
2017-12-17T07:31:38.429Z,0.7
2017-12-17T07:32:42.663Z,0.6
2017-12-17T07:33:46.103Z,0.7
2017-12-17T07:34:49.257Z,0.7
2017-12-17T07:35:52.960Z,0.7
2017-12-17T07:36:56.449Z,0.7
2017-12-17T07:37:59.912Z,0.7
2017-12-17T07:39:02.870Z,0.7
2017-12-17T07:40:06.763Z,0.7
2017-12-17T07:41:10.195Z,0.7
2017-12-17T07:42:16.887Z,0.7
2017-12-17T07:43:20.080Z,0.7
2017-12-17T07:44:24.656Z,0.7
2017-12-17T07:45:28.491Z,0.7
2017-12-17T07:46:32.161Z,0.7
2017-12-17T07:47:35.552Z,0.7
2017-12-17T07:48:39.002Z,0.8
2017-12-17T07:49:42.382Z,0.7
2017-12-17T07:50:45.862Z,0.8
2017-12-17T07:51:49.334Z,0.8
2017-12-17T07:52:56.892Z,0.8
2017-12-17T07:54:00.111Z,0.8
2017-12-17T07:55:03.486Z,0.8
2017-12-17T07:56:06.905Z,0.8
2017-12-17T07:57:10.294Z,0.8
2017-12-17T07:58:14.248Z,0.8
2017-12-17T07:59:18.289Z,0.8
2017-12-17T08:00:21.692Z,0.8
2017-12-17T08:01:24.963Z,0.8
2017-12-17T08:02:28.669Z,0.8
2017-12-17T08:03:35.717Z,0.8
2017-12-17T08:04:39.305Z,0.8
2017-12-17T08:05:42.828Z,0.8
2017-12-17T08:06:46.322Z,0.8
2017-12-17T08:07:51.320Z,0.8
2017-12-17T08:08:55.075Z,0.8
2017-12-17T08:09:58.529Z,0.8
2017-12-17T08:11:01.666Z,0.8
2017-12-17T08:12:05.348Z,0.8
2017-12-17T08:13:08.933Z,0.8
2017-12-17T08:14:15.093Z,0.8
2017-12-17T08:15:18.764Z,0.7
2017-12-17T08:16:22.822Z,0.8
2017-12-17T08:17:26.292Z,0.8
2017-12-17T08:18:29.965Z,0.8
2017-12-17T08:19:33.445Z,0.8
2017-12-17T08:20:36.576Z,0.8
2017-12-17T08:21:39.986Z,0.8
2017-12-17T08:22:43.771Z,0.8
2017-12-17T08:23:46.998Z,0.8
2017-12-17T08:24:53.254Z,0.8
2017-12-17T08:25:57.907Z,0.8
2017-12-17T08:27:01.336Z,0.8
2017-12-17T08:28:04.563Z,0.8
2017-12-17T08:29:08.504Z,0.8
2017-12-17T08:30:11.831Z,0.8
2017-12-17T08:31:15.313Z,0.8
2017-12-17T08:32:18.649Z,0.8
2017-12-17T08:33:22.724Z,0.8
2017-12-17T08:34:26.308Z,0.8
2017-12-17T08:35:34.178Z,0.9
2017-12-17T08:36:37.732Z,0.9
2017-12-17T08:37:41.015Z,0.9
2017-12-17T08:38:44.401Z,0.9
2017-12-17T08:39:47.524Z,1
2017-12-17T08:40:50.997Z,1
2017-12-17T08:41:54.423Z,1
2017-12-17T08:43:01.387Z,1
2017-12-17T08:44:05.526Z,1
2017-12-17T08:45:08.825Z,0.9
2017-12-17T08:46:15.869Z,0.9
2017-12-17T08:47:20.017Z,0.9
2017-12-17T08:48:23.554Z,0.9
2017-12-17T08:49:27.071Z,0.9
2017-12-17T08:50:33.688Z,0.9
2017-12-17T08:51:37.277Z,0.9
2017-12-17T08:52:43.665Z,1
2017-12-17T08:53:47.847Z,0.9
2017-12-17T08:54:51.244Z,1
2017-12-17T08:55:54.591Z,1
2017-12-17T08:57:01.424Z,0.8
2017-12-17T08:58:04.783Z,0.8
2017-12-17T08:59:11.205Z,0.8
2017-12-17T09:00:14.550Z,0.8
2017-12-17T09:01:17.708Z,0.7
2017-12-17T09:02:21.949Z,0.7
2017-12-17T09:03:25.122Z,0.7
2017-12-17T09:04:28.476Z,0.6
2017-12-17T09:05:31.867Z,0.7
2017-12-17T09:06:35.896Z,0.6
2017-12-17T09:07:46.931Z,0.5
2017-12-17T09:08:52.989Z,0.5
2017-12-17T09:09:57.221Z,0.5
2017-12-17T09:11:05.988Z,0.5
2017-12-17T09:12:14.752Z,0.5
2017-12-17T09:13:19.329Z,0.5
2017-12-17T09:14:25.172Z,0.6
2017-12-17T09:15:31.617Z,0.7
2017-12-17T09:16:35.046Z,0.6
2017-12-17T09:17:39.163Z,0.6
2017-12-17T09:18:51.831Z,0.6
2017-12-17T09:19:58.632Z,0.6
2017-12-17T09:21:02.077Z,0.6
2017-12-17T09:22:07.432Z,0.7
2017-12-17T09:23:14.364Z,0.7
2017-12-17T09:24:18.323Z,0.8
2017-12-17T09:25:21.859Z,0.7
2017-12-17T09:26:26.895Z,0.7
2017-12-17T09:27:31.609Z,0.7
2017-12-17T09:28:37.033Z,0.7
2017-12-17T09:29:45.265Z,0.7
2017-12-17T09:30:49.440Z,0.7
2017-12-17T09:31:52.911Z,0.7
2017-12-17T09:32:56.294Z,0.7
2017-12-17T09:33:59.677Z,0.7
2017-12-17T09:35:04.264Z,0.7
2017-12-17T09:36:07.855Z,0.7
2017-12-17T09:37:11.322Z,0.7
2017-12-17T09:38:14.711Z,0.8
2017-12-17T09:39:18.309Z,0.8
2017-12-17T09:40:26.404Z,0.8
2017-12-17T09:41:30.566Z,0.9
2017-12-17T09:42:34.649Z,0.9
2017-12-17T09:43:38.066Z,0.9
2017-12-17T09:44:43.383Z,0.9
2017-12-17T09:45:46.938Z,1
2017-12-17T09:46:50.626Z,1
2017-12-17T09:47:55.272Z,1
2017-12-17T09:49:00.090Z,1
2017-12-17T09:50:04.278Z,1
2017-12-17T09:51:12.862Z,1
2017-12-17T09:52:16.557Z,1
2017-12-17T09:53:20.196Z,1.1
2017-12-17T09:54:24.607Z,1.1
2017-12-17T09:55:38.547Z,1.1
2017-12-17T09:56:54.724Z,1.1
2017-12-17T09:57:59.397Z,1.1
2017-12-17T09:59:04.391Z,1.1
2017-12-17T10:00:16.160Z,1.1
2017-12-17T10:01:33.157Z,1.1
2017-12-17T10:02:45.190Z,1.2
2017-12-17T10:03:50.818Z,1.2
2017-12-17T10:04:54.193Z,1.2
2017-12-17T10:06:01.242Z,1.2
2017-12-17T10:07:05.073Z,1.2
2017-12-17T10:08:19.864Z,1.2
2017-12-17T10:09:25.797Z,1.3
2017-12-17T10:10:39.883Z,1.3
2017-12-17T10:11:43.387Z,1.3
2017-12-17T10:12:56.895Z,1.3
2017-12-17T10:14:12.572Z,1.3
2017-12-17T10:15:19.745Z,1.3
2017-12-17T10:16:33.040Z,1.3
2017-12-17T10:17:36.562Z,1.3
2017-12-17T10:18:40.825Z,1.4
2017-12-17T10:19:45.476Z,1.4
2017-12-17T10:20:48.996Z,1.4
2017-12-17T10:21:53.653Z,1.3
2017-12-17T10:22:58.445Z,1.3
2017-12-17T10:24:03.456Z,1.3
2017-12-17T10:25:10.392Z,1.3
2017-12-17T10:26:16.558Z,1.4
2017-12-17T10:27:20.479Z,1.4
2017-12-17T10:28:25.105Z,1.4
2017-12-17T10:29:30.098Z,1.5
2017-12-17T10:30:33.431Z,1.5
2017-12-17T10:31:37.987Z,1.4
2017-12-17T10:32:41.429Z,1.4
2017-12-17T10:33:45.744Z,1.4
2017-12-17T10:34:49.280Z,1.4
2017-12-17T10:35:57.196Z,1.3
2017-12-17T10:37:01.427Z,1.4
2017-12-17T10:38:05.844Z,1.4
2017-12-17T10:39:09.375Z,1.4
2017-12-17T10:40:13.307Z,1.5
2017-12-17T10:41:17.713Z,1.5
2017-12-17T10:42:22.119Z,1.4
2017-12-17T10:43:25.645Z,1.5
2017-12-17T10:44:29.239Z,1.4
2017-12-17T10:45:33.322Z,1.4
2017-12-17T10:46:40.760Z,1.4
2017-12-17T10:47:45.975Z,1.4
2017-12-17T10:48:50.203Z,1.4
2017-12-17T10:49:53.703Z,1.4
2017-12-17T10:50:57.932Z,1.4
2017-12-17T10:52:02.484Z,1.3
2017-12-17T10:53:06.018Z,1.3
2017-12-17T10:54:10.230Z,1.4
2017-12-17T10:55:14.273Z,1.4
2017-12-17T10:56:17.567Z,1.4
2017-12-17T10:57:24.885Z,1.4
2017-12-17T10:58:28.513Z,1.3
2017-12-17T10:59:32.694Z,1.4
2017-12-17T11:00:36.725Z,1.4
2017-12-17T11:01:40.280Z,1.3
2017-12-17T11:02:44.435Z,1.2
2017-12-17T11:03:48.609Z,1.2
2017-12-17T11:04:53.106Z,1.2
2017-12-17T11:05:57.230Z,1.2
2017-12-17T11:07:00.802Z,1.2
2017-12-17T11:08:08.754Z,1.3
2017-12-17T11:09:12.070Z,1.3
2017-12-17T11:10:15.752Z,1.3
2017-12-17T11:11:19.181Z,1.3
2017-12-17T11:12:23.256Z,1.3
2017-12-17T11:13:26.693Z,1.3
2017-12-17T11:14:31.053Z,1.3
2017-12-17T11:15:35.292Z,1.3
2017-12-17T11:16:38.693Z,1.3
2017-12-17T11:17:42.311Z,1.2
2017-12-17T11:18:51.358Z,1.2
2017-12-17T11:19:54.780Z,1.2
2017-12-17T11:20:59.056Z,1.2
2017-12-17T11:22:03.057Z,1.2
2017-12-17T11:23:06.484Z,1.2
2017-12-17T11:24:09.886Z,1.1
2017-12-17T11:25:13.357Z,1.1
2017-12-17T11:26:16.803Z,1.1
2017-12-17T11:27:20.194Z,1.2
2017-12-17T11:28:24.356Z,1.1
2017-12-17T11:29:31.187Z,1.1
2017-12-17T11:30:34.593Z,1.1
2017-12-17T11:31:38.121Z,1.1
2017-12-17T11:32:41.713Z,1.1
2017-12-17T11:33:45.310Z,1.1
2017-12-17T11:34:49.469Z,1.2
2017-12-17T11:35:53.740Z,1.1
2017-12-17T11:36:57.785Z,1.1
2017-12-17T11:38:01.320Z,1.1
2017-12-17T11:39:04.900Z,1.1
2017-12-17T11:40:11.895Z,1.1
2017-12-17T11:41:15.710Z,1.1
2017-12-17T11:42:19.382Z,1.1
2017-12-17T11:43:22.720Z,1.1
2017-12-17T11:44:26.286Z,1.1
2017-12-17T11:45:29.800Z,1
2017-12-17T11:46:33.742Z,0.9
2017-12-17T11:47:37.161Z,0.8
2017-12-17T11:48:41.220Z,0.8
2017-12-17T11:49:44.807Z,0.5
2017-12-17T11:50:52.650Z,0.5
2017-12-17T11:51:56.686Z,0.6
2017-12-17T11:53:00.968Z,0.6
2017-12-17T11:54:04.395Z,0.8
2017-12-17T11:55:07.850Z,0.8
2017-12-17T11:56:11.342Z,0.9
2017-12-17T11:57:14.807Z,1
2017-12-17T11:58:18.109Z,1
2017-12-17T11:59:22.269Z,1
2017-12-17T12:00:25.749Z,1
2017-12-17T12:01:33.087Z,1
2017-12-17T12:02:36.635Z,1
2017-12-17T12:03:40.163Z,1
2017-12-17T12:04:43.492Z,1
2017-12-17T12:05:47.464Z,1
2017-12-17T12:06:50.840Z,1
2017-12-17T12:07:54.900Z,1
2017-12-17T12:08:58.449Z,1
2017-12-17T12:10:01.997Z,0.9
2017-12-17T12:11:05.673Z,0.9
2017-12-17T12:12:12.740Z,0.9
2017-12-17T12:13:16.902Z,1
2017-12-17T12:14:21.199Z,0.9
2017-12-17T12:15:24.504Z,0.9
2017-12-17T12:16:29.230Z,0.9
2017-12-17T12:17:33.189Z,1
2017-12-17T12:18:36.662Z,0.9
2017-12-17T12:19:40.073Z,1
2017-12-17T12:20:44.210Z,1
2017-12-17T12:21:47.667Z,1
2017-12-17T12:22:55.238Z,1
2017-12-17T12:23:58.727Z,0.9
2017-12-17T12:25:02.660Z,0.9
2017-12-17T12:26:07.099Z,0.9
2017-12-17T12:27:10.607Z,0.9
2017-12-17T12:28:14.730Z,0.9
2017-12-17T12:29:18.317Z,0.9
2017-12-17T12:30:22.924Z,0.9
2017-12-17T12:31:27.234Z,0.9
2017-12-17T12:32:31.012Z,0.8
2017-12-17T12:33:38.498Z,0.8
2017-12-17T12:34:42.071Z,0.8
2017-12-17T12:35:45.497Z,0.8
2017-12-17T12:36:49.060Z,0.9
2017-12-17T12:37:52.489Z,0.8
2017-12-17T12:38:56.034Z,0.9
2017-12-17T12:40:00.043Z,0.9
2017-12-17T12:41:03.495Z,0.9
2017-12-17T12:42:07.363Z,0.9
2017-12-17T12:43:12.050Z,0.8
2017-12-17T12:44:18.976Z,0.7
2017-12-17T12:45:22.593Z,0.7
2017-12-17T12:46:26.192Z,0.7
2017-12-17T12:47:29.632Z,0.7
2017-12-17T12:48:33.099Z,0.6
2017-12-17T12:49:36.550Z,0.6
2017-12-17T12:50:39.933Z,0.6
2017-12-17T12:51:43.237Z,0.6
2017-12-17T12:52:46.792Z,0.6
2017-12-17T12:53:50.198Z,0.6
2017-12-17T12:54:58.596Z,0.6
2017-12-17T12:56:02.125Z,0.7
2017-12-17T12:57:06.246Z,0.7
2017-12-17T12:58:09.787Z,0.7
2017-12-17T12:59:13.210Z,0.7
2017-12-17T13:00:16.602Z,0.7
2017-12-17T13:01:19.893Z,0.7
2017-12-17T13:02:24.152Z,0.7
2017-12-17T13:03:28.217Z,0.7
2017-12-17T13:04:31.688Z,0.7
2017-12-17T13:05:38.585Z,0.7
2017-12-17T13:06:42.513Z,0.7
2017-12-17T13:07:46.549Z,0.7
2017-12-17T13:08:51.283Z,0.8
2017-12-17T13:09:56.212Z,0.7
2017-12-17T13:10:59.827Z,0.8
2017-12-17T13:12:04.086Z,0.8
2017-12-17T13:13:08.118Z,0.8
2017-12-17T13:14:11.872Z,0.8
2017-12-17T13:15:15.388Z,0.7
2017-12-17T13:16:22.711Z,0.7
2017-12-17T13:17:26.270Z,0.7
2017-12-17T13:18:30.396Z,0.8
2017-12-17T13:19:33.936Z,0.8
2017-12-17T13:20:37.320Z,0.8
2017-12-17T13:21:41.468Z,0.7
2017-12-17T13:22:44.968Z,0.7
2017-12-17T13:23:48.642Z,0.6
2017-12-17T13:24:52.740Z,0.7
2017-12-17T13:25:58.355Z,0.6
2017-12-17T13:27:05.204Z,0.6
2017-12-17T13:28:08.758Z,0.6
2017-12-17T13:29:13.034Z,0.7
2017-12-17T13:30:17.506Z,0.6
2017-12-17T13:31:20.964Z,0.6
2017-12-17T13:32:24.341Z,0.5
2017-12-17T13:33:27.748Z,0.5
2017-12-17T13:34:31.356Z,0.5
2017-12-17T13:35:34.668Z,0.6
2017-12-17T13:36:38.001Z,0.5
2017-12-17T13:37:45.640Z,0.5
2017-12-17T13:38:49.025Z,0.6
2017-12-17T13:39:52.479Z,0.3
2017-12-17T13:40:55.963Z,0.4
2017-12-17T13:41:59.431Z,0.4
2017-12-17T13:43:02.839Z,0.4
2017-12-17T13:44:06.554Z,0.5
2017-12-17T13:45:10.271Z,0.5
2017-12-17T13:46:15.327Z,0.4
2017-12-17T13:47:21.329Z,0.3
2017-12-17T13:48:32.136Z,0.3
2017-12-17T13:49:39.783Z,0.4
2017-12-17T13:50:46.515Z,0.3
2017-12-17T13:51:52.429Z,0.5
2017-12-17T13:52:57.838Z,0.5
2017-12-17T13:54:09.309Z,0.5
2017-12-17T13:55:19.459Z,0.5
2017-12-17T13:56:33.534Z,0.5
2017-12-17T13:57:39.222Z,0.6
2017-12-17T13:58:43.752Z,0.6
2017-12-17T13:59:51.695Z,0.5
2017-12-17T14:00:55.186Z,0.6
2017-12-17T14:01:58.646Z,0.6
2017-12-17T14:03:03.317Z,0.6
2017-12-17T14:04:06.731Z,0.6
2017-12-17T14:05:11.389Z,0.6
2017-12-17T14:06:16.497Z,0.6
2017-12-17T14:07:20.988Z,0.6
2017-12-17T14:08:24.414Z,0.6
2017-12-17T14:09:27.912Z,0.6
2017-12-17T14:10:35.019Z,0.6
2017-12-17T14:11:38.630Z,0.6
2017-12-17T14:12:41.984Z,0.5
2017-12-17T14:13:46.427Z,0.5
2017-12-17T14:14:50.611Z,0.5
2017-12-17T14:15:53.934Z,0.5
2017-12-17T14:16:57.007Z,0.4
2017-12-17T14:18:00.358Z,0.4
2017-12-17T14:19:03.937Z,0.3
2017-12-17T14:20:07.590Z,0.3
2017-12-17T14:21:14.371Z,0.4
2017-12-17T14:22:18.696Z,0.4
2017-12-17T14:23:22.315Z,0.4
2017-12-17T14:24:25.586Z,0.4
2017-12-17T14:25:29.129Z,0.4
2017-12-17T14:26:32.472Z,0.4
2017-12-17T14:27:36.904Z,0.5
2017-12-17T14:28:40.930Z,0.4
2017-12-17T14:29:45.579Z,0.4
2017-12-17T14:30:49.131Z,0.3
2017-12-17T14:31:55.995Z,0.3
2017-12-17T14:32:59.356Z,0.3
2017-12-17T14:34:02.760Z,0.4
2017-12-17T14:35:06.105Z,0.4
2017-12-17T14:36:09.560Z,0.3
2017-12-17T14:37:12.928Z,0.3
2017-12-17T14:38:16.432Z,0.3
2017-12-17T14:39:19.921Z,0.3
2017-12-17T14:40:23.351Z,0.3
2017-12-17T14:41:26.844Z,0.3
2017-12-17T14:42:33.645Z,0.3
2017-12-17T14:43:37.040Z,0.3
2017-12-17T14:44:41.340Z,0.2
2017-12-17T14:45:44.745Z,0.2
2017-12-17T14:46:48.182Z,0.2
2017-12-17T14:47:51.918Z,0.2
2017-12-17T14:48:55.305Z,0.3